Waukegan, IL (60079)

4:21 AM CST on January 25, 2015 (GMT -0600)
North Side, Waukegan | Change Station
CLOSE
Current Station
Personal Weather Station
Location: Waukegan, IL
Elevation: 659 ft
Nearby Weather Stations
Active Advisory: Special Statement

Elev 659 ft 42.37 °N, 87.83 °W | Updated 0 second ago

Overcast
Overcast
32.7 °F
Feels Like 29 °F
N
4.0
Wind Variable Wind from NNE
Gusts 4.9 mph

Today
High -- | Low -- °F
--% Chance of Precip.
Yesterday
High -- | Low -- °F
Precip. -- in
7:11 AM 4:56 PM
Waxing Crescent, 31% visible
Pressure 29.73 in
Visibility 6.0 miles
Clouds Overcast 600 ft
Windchill 29 °F
Dew Point 28 °F
Humidity 83%
Rainfall 0.00 in
Snow Depth Not available.
UV 0 out of 12
Pollen .10 out of 12
Air Quality Not available.
Flu Activity Not available.
METAR KUGN 250955Z AUTO 01012G22KT 6SM -SN BR OVC006 M01/M02 A2970 RMK AO2 UPB25E47SNB47 SLP067 P0000 T10061017

More Conditions Fewer Conditions

Pressure 29.73 in
Visibility 6.0 miles
Clouds Overcast 600 ft
Windchill 29 °F
Dew Point 28 °F
Humidity 83%
Rainfall 0.00 in
Snow Depth Not available.
UV 0 out of 12
Pollen .10 out of 12
Air Quality Not available.
Flu Activity Not available.
METAR KUGN 250955Z AUTO 01012G22KT 6SM -SN BR OVC006 M01/M02 A2970 RMK AO2 UPB25E47SNB47 SLP067 P0000 T10061017

More Conditions Fewer Conditions

10-Day Weather Forecast

Almanac

Astronomy

Jan. 25, 2015 Rise Set
Actual Time
Civil Twilight
Nautical Twilight
Astronomical Twilight
Moon
Length of Visible Light
Length of Day
Tomorrow will be .
, % of the Moon is Illuminated

Today's Extremes

State Highs State Lows

Community

WunderPhotos

Upload Photos

1,789,861 photos uploaded!

WunderBlogs® & News

Nearby

Air Quality

  Air Quality AQ Index Pollutant
Not available.

Snow Depth

Station Depth Elevation

Earthquake Activity

City Distance Mag. Time & Date
Minimum magnitude displayed is 2.5.

Coastal Water Temperatures

Place Temperature

Nearby Weather Stations